Terminal Aerodrome Forecast
Issued by NWS

Home | Current Version | Previous Version | Text Only | Print | Product List | Glossary On
Versions: 1 2 3 4 5 6 7 8 9 10 11 12 13 14 15 16 17 18 19
275
FTUS46 KSEW 121130
TAFBFI
TAF
KBFI 121130Z 1212/1312 16006KT P6SM -RA SCT011 OVC030
      TEMPO 1212/1215 5SM -RA BR BKN011 OVC030
     FM121900 19010KT P6SM VCSH SCT025 BKN040 BKN060=

USA.gov is the U.S. government's official web portal to all federal, state and local government web resources and services.